createdAt,value
2022-08-26T00:00:12.751Z,24.21
2022-08-26T00:01:12.747Z,24.12
2022-08-26T00:02:12.906Z,24.18
2022-08-26T00:03:12.767Z,24.13
2022-08-26T00:04:12.836Z,24.21
2022-08-26T00:05:12.762Z,24.12
2022-08-26T00:06:12.767Z,24.15
2022-08-26T00:07:12.774Z,24.12
2022-08-26T00:08:13.044Z,24.16
2022-08-26T00:09:12.827Z,24.16
2022-08-26T00:10:12.819Z,24.16
2022-08-26T00:11:12.795Z,24.10
2022-08-26T00:12:12.807Z,24.12
2022-08-26T00:13:12.819Z,24.15
2022-08-26T00:14:12.841Z,24.16
2022-08-26T00:15:12.826Z,24.10
2022-08-26T00:16:12.893Z,24.10
2022-08-26T00:17:12.838Z,24.09
2022-08-26T00:18:21.687Z,24.05
2022-08-26T00:19:12.892Z,24.03
2022-08-26T00:20:12.870Z,23.94
2022-08-26T00:21:12.870Z,23.98
2022-08-26T00:22:12.878Z,24.03
2022-08-26T00:23:12.881Z,23.94
2022-08-26T00:24:12.896Z,23.98
2022-08-26T00:25:12.900Z,24.05
2022-08-26T00:26:12.903Z,23.97
2022-08-26T00:27:12.894Z,23.98
2022-08-26T00:28:12.915Z,23.93
2022-08-26T00:29:13.050Z,23.93
2022-08-26T00:30:12.912Z,23.83
2022-08-26T00:31:12.946Z,23.84
2022-08-26T00:32:12.927Z,23.87
2022-08-26T00:33:12.931Z,23.85
2022-08-26T00:34:12.950Z,23.88
2022-08-26T00:35:12.966Z,23.78
2022-08-26T00:36:20.393Z,23.87
2022-08-26T00:37:16.152Z,23.85
2022-08-26T00:38:12.972Z,23.88
2022-08-26T00:39:12.972Z,23.78
2022-08-26T00:40:13.005Z,23.75
2022-08-26T00:41:12.989Z,23.75
2022-08-26T00:42:13.017Z,23.79
2022-08-26T00:43:13.000Z,23.79
2022-08-26T00:44:13.003Z,23.83
2022-08-26T00:45:13.013Z,23.75
2022-08-26T00:46:13.067Z,23.69
2022-08-26T00:47:13.028Z,23.72
2022-08-26T00:48:13.046Z,23.69
2022-08-26T00:49:13.055Z,23.75
2022-08-26T00:50:13.034Z,23.73
2022-08-26T00:51:13.958Z,23.73
2022-08-26T00:52:13.143Z,23.69
2022-08-26T00:53:13.065Z,23.75
2022-08-26T00:54:13.066Z,23.76
2022-08-26T00:55:14.643Z,23.69
2022-08-26T00:56:13.359Z,23.73
2022-08-26T00:57:16.205Z,23.73
2022-08-26T00:58:13.090Z,23.73
2022-08-26T00:59:13.091Z,23.73
2022-08-26T01:00:13.105Z,23.76
2022-08-26T01:01:13.151Z,23.76
2022-08-26T01:02:19.970Z,23.70
2022-08-26T01:03:13.114Z,23.73
2022-08-26T01:04:13.114Z,23.76
2022-08-26T01:05:13.131Z,23.72
2022-08-26T01:08:03.873Z,23.76
2022-08-26T01:08:44.710Z,23.73
2022-08-26T01:09:44.719Z,23.78
2022-08-26T01:10:44.727Z,23.72
2022-08-26T01:11:44.739Z,23.78
2022-08-26T01:12:44.741Z,23.72
2022-08-26T01:13:44.734Z,23.83
2022-08-26T01:14:46.410Z,23.79
2022-08-26T01:15:44.763Z,23.85
2022-08-26T01:16:44.820Z,23.76
2022-08-26T01:17:44.768Z,23.90
2022-08-26T01:18:44.778Z,23.73
2022-08-26T01:19:44.782Z,23.87
2022-08-26T01:20:44.789Z,23.88
2022-08-26T01:21:44.789Z,23.85
2022-08-26T01:22:44.797Z,23.87
2022-08-26T01:23:45.062Z,23.84
2022-08-26T01:24:44.808Z,23.87
2022-08-26T01:25:44.827Z,23.83
2022-08-26T01:26:44.813Z,23.85
2022-08-26T01:27:44.841Z,23.83
2022-08-26T01:28:44.840Z,23.84
2022-08-26T01:29:44.830Z,23.84
2022-08-26T01:30:44.861Z,23.83
2022-08-26T01:31:44.925Z,23.84
2022-08-26T01:32:44.851Z,23.83
2022-08-26T01:33:44.850Z,23.80
2022-08-26T01:34:44.864Z,23.90
2022-08-26T01:35:44.889Z,23.85
2022-08-26T01:36:49.216Z,23.87
2022-08-26T01:37:44.873Z,23.85
2022-08-26T01:38:44.895Z,23.80
2022-08-26T01:39:44.977Z,23.78
2022-08-26T01:40:44.893Z,23.79
2022-08-26T01:41:44.916Z,23.76
2022-08-26T01:42:44.940Z,23.72
2022-08-26T01:43:44.917Z,23.70
2022-08-26T01:44:44.942Z,23.73
2022-08-26T01:45:44.984Z,23.69
2022-08-26T01:46:44.931Z,23.76
2022-08-26T01:47:44.961Z,23.70
2022-08-26T01:48:44.948Z,23.73
2022-08-26T01:49:44.960Z,23.70
2022-08-26T01:50:44.965Z,23.73
2022-08-26T01:51:44.960Z,23.76
2022-08-26T01:52:44.983Z,23.72
2022-08-26T01:53:45.978Z,23.68
2022-08-26T01:54:46.212Z,23.65
2022-08-26T01:55:44.998Z,23.63
2022-08-26T01:56:44.989Z,23.65
2022-08-26T01:57:44.992Z,23.61
2022-08-26T01:58:44.996Z,23.60
2022-08-26T01:59:45.040Z,23.58
2022-08-26T02:00:45.036Z,23.58
2022-08-26T02:01:45.036Z,23.55
2022-08-26T02:02:45.030Z,23.54
2022-08-26T02:03:45.060Z,23.60
2022-08-26T02:04:45.130Z,23.57
2022-08-26T02:05:45.036Z,23.55
2022-08-26T02:06:45.054Z,23.54
2022-08-26T02:07:45.048Z,23.55
2022-08-26T02:08:45.065Z,23.50
2022-08-26T02:09:45.071Z,23.57
2022-08-26T02:10:45.074Z,23.55
2022-08-26T02:11:45.075Z,23.50
2022-08-26T02:12:45.087Z,23.46
2022-08-26T02:13:45.095Z,23.48
2022-08-26T02:14:45.106Z,23.53
2022-08-26T02:15:45.107Z,23.47
2022-08-26T02:16:45.219Z,23.47
2022-08-26T02:17:45.109Z,23.43
2022-08-26T02:18:45.125Z,23.42
2022-08-26T02:19:45.128Z,23.50
2022-08-26T02:20:45.133Z,23.51
2022-08-26T02:21:45.134Z,23.40
2022-08-26T02:22:45.407Z,23.50
2022-08-26T02:23:45.569Z,23.47
2022-08-26T02:24:45.158Z,23.47
2022-08-26T02:25:45.181Z,23.38
2022-08-26T02:26:45.177Z,23.33
2022-08-26T02:27:45.173Z,23.40
2022-08-26T02:28:45.200Z,23.43
2022-08-26T02:29:45.173Z,23.47
2022-08-26T02:30:45.190Z,23.48
2022-08-26T02:31:45.220Z,23.32
2022-08-26T02:32:45.227Z,23.42
2022-08-26T02:33:45.189Z,23.40
2022-08-26T02:34:45.203Z,23.40
2022-08-26T02:35:45.206Z,23.42
2022-08-26T02:36:45.232Z,23.39
2022-08-26T02:37:45.232Z,23.35
2022-08-26T02:38:45.248Z,23.40
2022-08-26T02:39:45.231Z,23.42
2022-08-26T02:40:45.248Z,23.51
2022-08-26T02:41:45.458Z,23.51
2022-08-26T02:42:45.252Z,23.47
2022-08-26T02:43:45.273Z,23.46
2022-08-26T02:44:45.286Z,23.42
2022-08-26T02:45:45.261Z,23.46
2022-08-26T02:46:47.174Z,23.42
2022-08-26T02:47:45.278Z,23.46
2022-08-26T02:48:45.304Z,23.54
2022-08-26T02:49:47.221Z,23.48
2022-08-26T02:50:45.306Z,23.46
2022-08-26T02:51:45.295Z,23.46
2022-08-26T02:52:45.339Z,23.42
2022-08-26T02:53:45.331Z,23.43
2022-08-26T02:54:45.436Z,23.42
2022-08-26T02:55:45.318Z,23.53
2022-08-26T02:56:45.343Z,23.39
2022-08-26T02:57:45.342Z,23.35
2022-08-26T02:58:45.340Z,23.36
2022-08-26T02:59:45.350Z,23.43
2022-08-26T03:00:53.093Z,23.40
2022-08-26T03:01:45.497Z,23.40
2022-08-26T03:02:45.359Z,23.40
2022-08-26T03:03:45.379Z,23.39
2022-08-26T03:04:57.303Z,23.40
2022-08-26T03:05:45.389Z,23.35
2022-08-26T03:06:45.435Z,23.28
2022-08-26T03:07:45.388Z,23.25
2022-08-26T03:08:45.404Z,23.31
2022-08-26T03:09:45.409Z,23.22
2022-08-26T03:10:45.418Z,23.35
2022-08-26T03:11:45.421Z,23.28
2022-08-26T03:12:47.335Z,23.27
2022-08-26T03:13:45.432Z,23.31
2022-08-26T03:14:45.430Z,23.25
2022-08-26T03:15:47.578Z,23.27
2022-08-26T03:16:48.347Z,23.28
2022-08-26T03:17:45.469Z,23.27
2022-08-26T03:18:52.053Z,23.36
2022-08-26T03:19:45.460Z,23.35
2022-08-26T03:20:45.456Z,23.32
2022-08-26T03:21:47.226Z,23.20
2022-08-26T03:22:45.472Z,23.28
2022-08-26T03:23:45.497Z,23.28
2022-08-26T03:24:46.028Z,23.13
2022-08-26T03:25:45.495Z,23.12
2022-08-26T03:26:52.528Z,23.17
2022-08-26T03:27:45.524Z,23.12
2022-08-26T03:28:45.530Z,23.10
2022-08-26T03:29:45.527Z,23.09
2022-08-26T03:30:45.848Z,23.04
2022-08-26T03:31:46.999Z,22.97
2022-08-26T03:32:45.537Z,23.01
2022-08-26T03:33:45.525Z,22.97
2022-08-26T03:34:45.544Z,22.92
2022-08-26T03:35:45.540Z,22.97
2022-08-26T03:36:45.559Z,22.92
2022-08-26T03:37:45.577Z,22.95
2022-08-26T03:38:45.580Z,22.95
2022-08-26T03:39:45.576Z,22.95
2022-08-26T03:40:45.572Z,22.91
2022-08-26T03:41:45.594Z,22.95
2022-08-26T03:42:45.593Z,22.92
2022-08-26T03:43:45.611Z,22.92
2022-08-26T03:44:45.587Z,22.95
2022-08-26T03:45:45.999Z,22.98
2022-08-26T03:46:45.650Z,22.92
2022-08-26T03:47:45.603Z,22.95
2022-08-26T03:48:45.622Z,22.94
2022-08-26T03:49:45.627Z,22.94
2022-08-26T03:50:45.631Z,22.94
2022-08-26T03:51:45.634Z,22.95
2022-08-26T03:52:45.645Z,22.92
2022-08-26T03:53:45.657Z,22.92
2022-08-26T03:54:45.670Z,23.02
2022-08-26T03:55:45.657Z,22.98
2022-08-26T03:56:46.532Z,23.02
2022-08-26T03:57:45.656Z,23.02
2022-08-26T03:58:45.922Z,23.05
2022-08-26T03:59:45.685Z,23.05
2022-08-26T04:00:45.678Z,23.09
2022-08-26T04:01:45.740Z,23.12
2022-08-26T04:02:45.743Z,23.07
2022-08-26T04:03:45.698Z,23.09
2022-08-26T04:04:45.714Z,23.07
2022-08-26T04:05:45.716Z,23.09
2022-08-26T04:06:45.706Z,23.09
2022-08-26T04:07:45.720Z,23.02
2022-08-26T04:08:45.721Z,23.05
2022-08-26T04:09:45.727Z,23.12
2022-08-26T04:10:45.749Z,23.05
2022-08-26T04:11:45.744Z,23.09
2022-08-26T04:12:45.747Z,23.09
2022-08-26T04:13:45.773Z,23.10
2022-08-26T04:14:45.765Z,23.12
2022-08-26T04:15:45.796Z,23.13
2022-08-26T04:16:45.769Z,23.09
2022-08-26T04:17:45.784Z,23.09
2022-08-26T04:18:46.843Z,23.09
2022-08-26T04:19:45.790Z,23.09
2022-08-26T04:20:45.780Z,23.13
2022-08-26T04:21:45.800Z,23.12
2022-08-26T04:22:45.799Z,23.02
2022-08-26T04:23:47.504Z,23.02
2022-08-26T04:24:45.802Z,23.10
2022-08-26T04:25:45.821Z,23.13
2022-08-26T04:26:45.814Z,23.09
2022-08-26T04:27:45.824Z,23.10
2022-08-26T04:28:45.819Z,23.00
2022-08-26T04:29:45.820Z,23.13
2022-08-26T04:30:45.826Z,23.10
2022-08-26T04:31:45.849Z,23.04
2022-08-26T04:32:45.884Z,23.05
2022-08-26T04:33:45.883Z,23.09
2022-08-26T04:34:45.890Z,23.04
2022-08-26T04:35:45.866Z,23.12
2022-08-26T04:36:45.869Z,23.09
2022-08-26T04:37:45.876Z,23.07
2022-08-26T04:38:45.882Z,23.10
2022-08-26T04:39:45.895Z,23.09
2022-08-26T04:40:46.795Z,23.05
2022-08-26T04:41:45.923Z,23.07
2022-08-26T04:42:45.898Z,23.12
2022-08-26T04:43:45.916Z,23.10
2022-08-26T04:44:45.920Z,23.13
2022-08-26T04:45:45.934Z,23.09
2022-08-26T04:46:46.506Z,23.09
2022-08-26T04:47:45.940Z,23.10
2022-08-26T04:48:45.961Z,23.15
2022-08-26T04:49:45.948Z,23.12
2022-08-26T04:50:49.351Z,23.09
2022-08-26T04:51:45.955Z,23.10
2022-08-26T04:52:45.975Z,23.12
2022-08-26T04:53:45.955Z,23.09
2022-08-26T04:54:45.990Z,23.13
2022-08-26T04:55:45.964Z,23.15
2022-08-26T04:56:46.038Z,23.19
2022-08-26T04:57:45.978Z,23.28
2022-08-26T04:58:45.995Z,23.22
2022-08-26T04:59:45.989Z,23.20
2022-08-26T05:00:46.002Z,23.17
2022-08-26T05:01:46.019Z,23.20
2022-08-26T05:02:46.016Z,23.22
2022-08-26T05:03:46.094Z,23.20
2022-08-26T05:04:46.030Z,23.19
2022-08-26T05:05:46.027Z,23.27
2022-08-26T05:06:46.048Z,23.23
2022-08-26T05:07:46.052Z,23.27
2022-08-26T05:08:46.050Z,23.28
2022-08-26T05:09:46.045Z,23.27
2022-08-26T05:10:46.065Z,23.28
2022-08-26T05:11:48.493Z,23.28
2022-08-26T05:12:46.092Z,23.40
2022-08-26T05:13:46.067Z,23.39
2022-08-26T05:14:46.071Z,23.40
2022-08-26T05:15:46.146Z,23.42
2022-08-26T05:16:47.730Z,23.36
2022-08-26T05:17:46.095Z,23.36
2022-08-26T05:18:46.346Z,23.39
2022-08-26T05:19:46.100Z,23.28
2022-08-26T05:20:46.108Z,23.25
2022-08-26T05:21:46.116Z,23.28
2022-08-26T05:22:46.120Z,23.27
2022-08-26T05:23:46.121Z,23.23
2022-08-26T05:24:46.159Z,23.27
2022-08-26T05:25:46.151Z,23.25
2022-08-26T05:26:46.139Z,23.36
2022-08-26T05:27:46.148Z,23.33
2022-08-26T05:28:46.166Z,23.20
2022-08-26T05:29:46.184Z,23.36
2022-08-26T05:30:46.201Z,23.28
2022-08-26T05:31:46.177Z,23.27
2022-08-26T05:32:46.178Z,23.27
2022-08-26T05:33:46.170Z,23.35
2022-08-26T05:34:46.204Z,23.32
2022-08-26T05:35:46.190Z,23.38
2022-08-26T05:36:46.193Z,23.32
2022-08-26T05:37:46.203Z,23.23
2022-08-26T05:38:46.209Z,23.28
2022-08-26T05:39:50.971Z,23.28
2022-08-26T05:40:46.242Z,23.38
2022-08-26T05:41:46.251Z,23.28
2022-08-26T05:42:46.246Z,23.40
2022-08-26T05:43:46.244Z,23.39
2022-08-26T05:44:53.868Z,23.38
2022-08-26T05:45:46.503Z,23.40
2022-08-26T05:46:46.365Z,23.48
2022-08-26T05:47:46.256Z,23.51
2022-08-26T05:48:46.256Z,23.48
2022-08-26T05:49:49.449Z,23.51
2022-08-26T05:50:46.301Z,23.50
2022-08-26T05:51:46.368Z,23.60
2022-08-26T05:52:46.306Z,23.63
2022-08-26T05:53:54.523Z,23.65
2022-08-26T05:54:46.286Z,23.65
2022-08-26T05:55:46.294Z,23.72
2022-08-26T05:56:46.390Z,23.72
2022-08-26T05:59:32.842Z,23.88
2022-08-26T06:00:17.907Z,23.87
2022-08-26T06:01:17.974Z,23.87
2022-08-26T06:02:17.978Z,23.87
2022-08-26T06:03:18.008Z,23.94
2022-08-26T06:04:17.928Z,23.94
2022-08-26T06:05:17.928Z,23.97
2022-08-26T06:06:20.675Z,24.12
2022-08-26T06:07:18.520Z,24.00
2022-08-26T06:08:19.334Z,24.08
2022-08-26T06:09:18.299Z,24.12
2022-08-26T06:10:32.963Z,24.24
2022-08-26T06:11:18.433Z,24.22
2022-08-26T06:12:18.536Z,24.31
2022-08-26T06:13:17.991Z,24.25
2022-08-26T06:14:17.998Z,24.34
2022-08-26T06:15:18.004Z,24.37
2022-08-26T06:16:18.034Z,24.43
2022-08-26T06:17:18.017Z,24.53
2022-08-26T06:18:18.005Z,24.50
2022-08-26T06:19:18.023Z,24.64
2022-08-26T06:20:18.044Z,24.55
2022-08-26T06:21:18.025Z,24.60
2022-08-26T06:22:22.245Z,24.65
2022-08-26T06:23:18.048Z,24.73
2022-08-26T06:24:18.057Z,24.76
2022-08-26T06:25:18.057Z,24.78
2022-08-26T06:26:18.055Z,24.88
2022-08-26T06:27:18.069Z,24.83
2022-08-26T06:28:18.092Z,24.91
2022-08-26T06:29:24.389Z,25.09
2022-08-26T06:30:18.099Z,25.03
2022-08-26T06:31:18.124Z,25.05
2022-08-26T06:32:18.103Z,25.15
2022-08-26T06:33:18.102Z,25.13
2022-08-26T06:34:18.123Z,25.21
2022-08-26T06:35:18.129Z,25.18
2022-08-26T06:36:18.694Z,25.33
2022-08-26T06:37:18.128Z,25.42
2022-08-26T06:38:18.134Z,25.42
2022-08-26T06:39:18.159Z,25.54
2022-08-26T06:40:18.179Z,25.58
2022-08-26T06:41:18.162Z,25.67
2022-08-26T06:42:18.177Z,25.70
2022-08-26T06:43:18.158Z,25.79
2022-08-26T06:44:18.180Z,25.83
2022-08-26T06:45:18.165Z,25.87
2022-08-26T06:46:18.235Z,25.90
2022-08-26T06:47:18.198Z,25.94
2022-08-26T06:48:18.196Z,25.94
2022-08-26T06:49:18.254Z,26.01
2022-08-26T06:50:18.201Z,26.02
2022-08-26T06:51:18.215Z,26.01
2022-08-26T06:52:22.940Z,26.13
2022-08-26T06:53:18.293Z,26.18
2022-08-26T06:54:18.237Z,26.30
2022-08-26T06:55:18.238Z,26.29
2022-08-26T06:56:18.239Z,26.36
2022-08-26T06:57:18.252Z,26.37
2022-08-26T06:58:18.263Z,26.45
2022-08-26T06:59:18.255Z,26.45
2022-08-26T07:00:18.271Z,26.40
2022-08-26T07:01:18.386Z,26.48
2022-08-26T07:02:18.362Z,26.50
2022-08-26T07:03:18.387Z,26.57
2022-08-26T07:04:20.159Z,26.73
2022-08-26T07:05:18.294Z,26.70
2022-08-26T07:06:18.324Z,26.81
2022-08-26T07:07:18.317Z,27.00
2022-08-26T07:08:18.317Z,27.25
2022-08-26T07:09:18.338Z,27.32
2022-08-26T07:10:18.358Z,27.54
2022-08-26T07:11:18.350Z,27.69
2022-08-26T07:12:18.349Z,27.82
2022-08-26T07:13:18.356Z,28.02
2022-08-26T07:14:19.345Z,28.19
2022-08-26T07:15:18.392Z,28.37
2022-08-26T07:16:18.427Z,28.40
2022-08-26T07:17:18.393Z,28.41
2022-08-26T07:18:18.391Z,28.48
2022-08-26T07:19:18.396Z,28.37
2022-08-26T07:20:18.438Z,28.39
2022-08-26T07:21:18.433Z,28.43
2022-08-26T07:22:18.420Z,28.39
2022-08-26T07:23:18.436Z,28.48
2022-08-26T07:24:18.438Z,28.61
2022-08-26T07:25:19.273Z,28.56
2022-08-26T07:26:18.468Z,28.61
2022-08-26T07:27:18.468Z,28.61
2022-08-26T07:28:18.466Z,28.77
2022-08-26T07:29:18.481Z,28.93
2022-08-26T07:30:18.482Z,29.09
2022-08-26T07:31:18.627Z,29.11
2022-08-26T07:32:18.499Z,29.09
2022-08-26T07:33:18.509Z,29.05
2022-08-26T07:34:18.527Z,28.92
2022-08-26T07:35:18.530Z,28.95
2022-08-26T07:36:18.525Z,28.89
2022-08-26T07:37:18.531Z,28.92
2022-08-26T07:38:18.551Z,28.98
2022-08-26T07:39:18.559Z,28.89
2022-08-26T07:40:18.647Z,28.92
2022-08-26T07:41:18.589Z,28.86
2022-08-26T07:42:18.650Z,28.78
2022-08-26T07:43:18.587Z,28.76
2022-08-26T07:44:18.598Z,28.74
2022-08-26T07:45:18.602Z,28.71
2022-08-26T07:46:18.602Z,28.62
2022-08-26T07:47:24.713Z,28.62
2022-08-26T07:48:18.626Z,28.59
2022-08-26T07:49:18.711Z,28.58
2022-08-26T07:50:18.632Z,28.59
2022-08-26T07:51:18.638Z,28.78
2022-08-26T07:52:20.658Z,28.67
2022-08-26T07:53:19.404Z,28.71
2022-08-26T07:54:18.806Z,28.68
2022-08-26T07:55:18.681Z,28.71
2022-08-26T07:56:18.687Z,28.81
2022-08-26T07:57:19.098Z,28.86
2022-08-26T07:58:18.696Z,28.80
2022-08-26T07:59:18.817Z,28.93
2022-08-26T08:00:18.722Z,28.96
2022-08-26T08:01:18.814Z,29.06
2022-08-26T08:02:18.733Z,29.04
2022-08-26T08:03:18.740Z,29.11
2022-08-26T08:04:21.895Z,29.11
2022-08-26T08:05:18.865Z,29.06
2022-08-26T08:06:18.790Z,29.08
2022-08-26T08:07:18.772Z,29.18
2022-08-26T08:08:26.737Z,29.04
2022-08-26T08:09:18.811Z,28.96
2022-08-26T08:10:18.888Z,29.02
2022-08-26T08:11:18.816Z,28.96
2022-08-26T08:12:18.829Z,29.06
2022-08-26T08:13:18.818Z,29.06
2022-08-26T08:14:18.838Z,29.23
2022-08-26T08:15:18.833Z,29.21
2022-08-26T08:16:18.862Z,29.19
2022-08-26T08:17:18.883Z,29.26
2022-08-26T08:18:20.356Z,29.19
2022-08-26T08:19:18.914Z,29.31
2022-08-26T08:20:18.917Z,29.26
2022-08-26T08:21:21.898Z,29.34
2022-08-26T08:22:19.896Z,29.42
2022-08-26T08:23:18.903Z,29.37
2022-08-26T08:24:18.918Z,29.39
2022-08-26T08:25:18.918Z,29.43
2022-08-26T08:26:18.924Z,29.52
2022-08-26T08:27:22.942Z,29.52
2022-08-26T08:28:18.969Z,29.51
2022-08-26T08:29:18.950Z,29.52
2022-08-26T08:30:20.848Z,29.51
2022-08-26T08:31:21.596Z,29.49
2022-08-26T08:32:18.973Z,29.63
2022-08-26T08:33:19.003Z,29.64
2022-08-26T08:34:18.993Z,29.63
2022-08-26T08:35:19.027Z,29.68
2022-08-26T08:36:26.650Z,29.73
2022-08-26T08:37:19.026Z,29.70
2022-08-26T08:38:19.034Z,29.71
2022-08-26T08:39:19.043Z,29.71
2022-08-26T08:40:19.221Z,29.73
2022-08-26T08:41:19.048Z,29.70
2022-08-26T08:42:19.060Z,29.53
2022-08-26T08:43:19.077Z,29.53
2022-08-26T08:44:19.175Z,29.37
2022-08-26T08:45:19.098Z,29.49
2022-08-26T08:46:19.135Z,29.49
2022-08-26T08:47:19.113Z,29.57
2022-08-26T08:48:19.125Z,29.55
2022-08-26T08:49:19.144Z,29.67
2022-08-26T08:50:19.140Z,29.73
2022-08-26T08:51:19.144Z,29.83
2022-08-26T08:52:19.150Z,29.92
2022-08-26T08:53:19.164Z,29.95
2022-08-26T08:54:19.176Z,30.01
2022-08-26T08:55:19.185Z,30.08
2022-08-26T08:56:19.209Z,30.13
2022-08-26T08:57:19.190Z,30.13
2022-08-26T08:58:19.750Z,30.20
2022-08-26T08:59:19.211Z,30.26
2022-08-26T09:00:19.284Z,30.26
2022-08-26T09:01:19.269Z,30.29
2022-08-26T09:02:19.297Z,30.38
2022-08-26T09:03:19.267Z,30.35
2022-08-26T09:04:19.264Z,30.42
2022-08-26T09:05:19.265Z,30.39
2022-08-26T09:06:19.292Z,30.38
2022-08-26T09:07:19.296Z,30.42
2022-08-26T09:08:19.817Z,30.31
2022-08-26T09:09:19.311Z,30.37
2022-08-26T09:10:19.317Z,30.37
2022-08-26T09:11:19.332Z,30.34
2022-08-26T09:12:19.336Z,30.38
2022-08-26T09:13:25.300Z,30.31
2022-08-26T09:14:19.344Z,30.43
2022-08-26T09:15:19.354Z,30.45
2022-08-26T09:16:20.293Z,30.45
2022-08-26T09:17:19.385Z,30.37
2022-08-26T09:18:19.381Z,30.34
2022-08-26T09:19:19.411Z,30.37
2022-08-26T09:20:19.403Z,30.24
2022-08-26T09:21:19.428Z,30.24
2022-08-26T09:22:19.472Z,30.27
2022-08-26T09:23:19.433Z,30.34
2022-08-26T09:24:19.434Z,30.26
2022-08-26T09:25:19.451Z,30.34
2022-08-26T09:26:19.464Z,30.31
2022-08-26T09:27:19.507Z,30.34
2022-08-26T09:28:19.471Z,30.38
2022-08-26T09:30:19.493Z,30.38
2022-08-26T09:31:19.573Z,30.46
2022-08-26T09:32:19.525Z,30.47
2022-08-26T09:33:19.541Z,30.49
2022-08-26T09:34:19.530Z,30.45
2022-08-26T09:35:19.547Z,30.54
2022-08-26T09:36:19.556Z,30.58
2022-08-26T09:37:19.552Z,30.65
2022-08-26T09:38:19.578Z,30.76
2022-08-26T09:39:19.582Z,30.86
2022-08-26T09:40:20.363Z,30.84
2022-08-26T09:41:19.601Z,30.92
2022-08-26T09:42:19.616Z,30.82
2022-08-26T09:43:22.638Z,30.83
2022-08-26T09:44:19.686Z,30.82
2022-08-26T09:45:19.636Z,30.82
2022-08-26T09:46:19.843Z,30.76
2022-08-26T09:47:27.213Z,30.76
2022-08-26T09:48:27.240Z,30.76
2022-08-26T09:49:26.761Z,30.70
2022-08-26T09:50:29.000Z,30.70
2022-08-26T09:51:27.339Z,30.69
2022-08-26T09:52:27.385Z,30.67
2022-08-26T09:53:20.947Z,30.72
2022-08-26T09:54:30.244Z,30.73
2022-08-26T09:55:19.733Z,30.91
2022-08-26T09:56:19.750Z,30.97
2022-08-26T09:57:19.747Z,31.10
2022-08-26T09:58:27.441Z,31.12
2022-08-26T09:59:26.826Z,31.20
2022-08-26T10:00:19.797Z,31.20
2022-08-26T10:01:19.849Z,31.25
2022-08-26T10:02:19.793Z,31.35
2022-08-26T10:03:19.786Z,31.50
2022-08-26T10:04:19.924Z,31.58
2022-08-26T10:05:20.036Z,31.73
2022-08-26T10:06:21.017Z,31.73
2022-08-26T10:07:19.838Z,31.88
2022-08-26T10:08:19.839Z,31.88
2022-08-26T10:09:19.861Z,31.80
2022-08-26T10:10:19.872Z,31.73
2022-08-26T10:11:20.166Z,31.69
2022-08-26T10:12:19.905Z,31.85
2022-08-26T10:13:19.892Z,31.95
2022-08-26T10:14:20.266Z,32.04
2022-08-26T10:15:19.905Z,32.19
2022-08-26T10:16:19.987Z,32.29
2022-08-26T10:17:19.929Z,32.30
2022-08-26T10:18:19.942Z,32.30
2022-08-26T10:19:19.964Z,32.14
2022-08-26T10:20:23.325Z,32.10
2022-08-26T10:21:19.972Z,32.07
2022-08-26T10:22:19.989Z,31.99
2022-08-26T10:23:20.026Z,31.80
2022-08-26T10:24:20.018Z,31.84
2022-08-26T10:25:20.031Z,31.72
2022-08-26T10:26:20.056Z,31.56
2022-08-26T10:27:20.052Z,31.51
2022-08-26T10:28:20.071Z,31.46
2022-08-26T10:29:20.074Z,31.43
2022-08-26T10:30:20.092Z,31.38
2022-08-26T10:31:20.147Z,31.34
2022-08-26T10:32:20.181Z,31.28
2022-08-26T10:33:20.118Z,31.28
2022-08-26T10:34:21.236Z,31.28
2022-08-26T10:35:20.140Z,31.26
2022-08-26T10:36:20.228Z,31.26
2022-08-26T10:37:20.153Z,31.25
2022-08-26T10:38:20.177Z,31.25
2022-08-26T10:39:20.174Z,31.21
2022-08-26T10:40:20.240Z,31.12
2022-08-26T10:41:20.224Z,31.20
2022-08-26T10:42:20.207Z,31.12
2022-08-26T10:43:20.219Z,31.09
2022-08-26T10:44:20.241Z,30.92
2022-08-26T10:45:20.250Z,31.04
2022-08-26T10:46:20.281Z,30.97
2022-08-26T10:47:20.257Z,30.94
2022-08-26T10:48:20.273Z,31.04
2022-08-26T10:49:20.291Z,30.94
2022-08-26T10:50:20.336Z,31.04
2022-08-26T10:51:20.298Z,30.91
2022-08-26T10:52:20.310Z,30.80
2022-08-26T10:53:25.236Z,30.95
2022-08-26T10:54:20.331Z,30.94
2022-08-26T10:55:20.363Z,31.02
2022-08-26T10:56:20.355Z,31.10
2022-08-26T10:57:20.382Z,31.20
2022-08-26T10:58:26.481Z,31.28
2022-08-26T10:59:20.388Z,31.41
2022-08-26T11:00:20.396Z,31.96
2022-08-26T11:01:22.747Z,32.44
2022-08-26T11:02:24.679Z,32.67
2022-08-26T11:03:22.398Z,32.75
2022-08-26T11:04:20.536Z,32.97
2022-08-26T11:05:20.442Z,32.94
2022-08-26T11:06:20.455Z,33.09
2022-08-26T11:07:20.490Z,32.89
2022-08-26T11:08:20.478Z,32.82
2022-08-26T11:09:20.487Z,32.82
2022-08-26T11:10:20.507Z,32.74
2022-08-26T11:11:20.509Z,32.59
2022-08-26T11:12:20.546Z,32.47
2022-08-26T11:13:20.554Z,32.52
2022-08-26T11:14:28.977Z,32.33
2022-08-26T11:15:24.685Z,32.30
2022-08-26T11:16:20.590Z,32.25
2022-08-26T11:17:20.580Z,32.08
2022-08-26T11:18:20.620Z,32.07
2022-08-26T11:19:20.602Z,31.86
2022-08-26T11:20:20.614Z,31.78
2022-08-26T11:21:20.649Z,31.66
2022-08-26T11:22:20.645Z,31.51
2022-08-26T11:23:20.679Z,31.41
2022-08-26T11:24:20.682Z,31.35
2022-08-26T11:25:20.700Z,31.38
2022-08-26T11:26:36.195Z,31.25
2022-08-26T11:27:20.685Z,31.25
2022-08-26T11:28:20.710Z,31.23
2022-08-26T11:29:20.719Z,31.31
2022-08-26T11:30:20.729Z,31.51
2022-08-26T11:31:21.071Z,31.95
2022-08-26T11:32:20.742Z,32.48
2022-08-26T11:33:20.762Z,32.70
2022-08-26T11:34:20.845Z,33.03
2022-08-26T11:35:20.770Z,33.19
2022-08-26T11:36:20.797Z,33.00
2022-08-26T11:38:20.813Z,32.60
2022-08-26T11:39:20.823Z,32.56
2022-08-26T11:40:20.903Z,32.30
2022-08-26T11:41:20.854Z,32.10
2022-08-26T11:42:20.843Z,31.76
2022-08-26T11:43:20.859Z,31.61
2022-08-26T11:44:20.878Z,31.38
2022-08-26T11:45:20.887Z,31.29
2022-08-26T11:46:20.914Z,31.07
2022-08-26T11:47:20.900Z,30.94
2022-08-26T11:48:20.986Z,30.82
2022-08-26T11:49:20.936Z,30.67
2022-08-26T11:50:20.935Z,30.61
2022-08-26T11:51:20.928Z,30.54
2022-08-26T11:52:21.113Z,30.35
2022-08-26T11:53:20.950Z,30.34
2022-08-26T11:54:30.527Z,30.23
2022-08-26T11:55:20.983Z,30.08
2022-08-26T11:56:20.993Z,30.07
2022-08-26T11:57:21.001Z,30.00
2022-08-26T11:58:21.004Z,29.97
2022-08-26T11:59:21.077Z,29.89
2022-08-26T12:00:22.518Z,29.90
2022-08-26T12:01:21.026Z,29.87
2022-08-26T12:02:21.049Z,29.76
2022-08-26T12:03:21.141Z,29.67
2022-08-26T12:04:21.121Z,29.65
2022-08-26T12:05:21.076Z,29.55
2022-08-26T12:06:21.136Z,29.39
2022-08-26T12:07:23.961Z,29.28
2022-08-26T12:08:21.110Z,29.21
2022-08-26T12:09:21.101Z,29.11
2022-08-26T12:10:21.115Z,28.89
2022-08-26T12:11:21.140Z,28.88
2022-08-26T12:12:21.155Z,28.74
2022-08-26T12:13:21.147Z,28.74
2022-08-26T12:14:21.172Z,28.67
2022-08-26T12:15:21.166Z,28.61
2022-08-26T12:16:21.203Z,28.59
2022-08-26T12:17:22.470Z,28.54
2022-08-26T12:18:29.517Z,28.51
2022-08-26T12:19:21.189Z,28.37
2022-08-26T12:20:21.199Z,28.41
2022-08-26T12:21:21.208Z,28.37
2022-08-26T12:22:21.239Z,28.34
2022-08-26T12:23:21.254Z,28.36
2022-08-26T12:24:21.240Z,28.34
2022-08-26T12:25:21.257Z,28.29
2022-08-26T12:26:21.254Z,28.25
2022-08-26T12:27:21.267Z,28.18
2022-08-26T12:28:21.282Z,28.09
2022-08-26T12:29:27.223Z,27.94
2022-08-26T12:30:21.319Z,27.94
2022-08-26T12:31:21.387Z,27.90
2022-08-26T12:32:21.318Z,27.79
2022-08-26T12:33:22.915Z,27.75
2022-08-26T12:34:21.356Z,27.85
2022-08-26T12:35:21.343Z,27.82
2022-08-26T12:36:21.353Z,27.74
2022-08-26T12:37:21.375Z,27.79
2022-08-26T12:38:21.386Z,27.74
2022-08-26T12:39:21.393Z,27.74
2022-08-26T12:40:21.428Z,27.74
2022-08-26T12:41:21.390Z,27.65
2022-08-26T12:42:21.414Z,27.63
2022-08-26T12:43:21.414Z,27.54
2022-08-26T12:44:21.448Z,27.50
2022-08-26T12:45:21.472Z,27.51
2022-08-26T12:46:21.447Z,27.44
2022-08-26T12:47:23.374Z,27.43
2022-08-26T12:48:21.455Z,27.44
2022-08-26T12:49:21.465Z,27.29
2022-08-26T12:50:21.494Z,27.44
2022-08-26T12:51:21.473Z,27.41
2022-08-26T12:52:21.497Z,27.37
2022-08-26T12:53:21.487Z,27.34
2022-08-26T12:54:21.501Z,27.29
2022-08-26T12:55:21.511Z,27.27
2022-08-26T12:56:21.524Z,27.27
2022-08-26T12:57:21.531Z,27.31